Thunder radar more information blitzortung!


Radar de pluja more information rain snow radar


Visita la nostra xarxa de llocs de meteo:

Template documentation
and downloads

And another site



No particular awareness of the weather is required.    There are no Weather-warnings

Pagina Historial Weather Underground text

Diari Resum Juny 23, 2017 Unitats:  Mètric    Imperial   Tant
« Previous Dia
SegĂźent Dia »
Diari Setmana Mensual Anual Personalitzada
  Maxima: Minima: Media:
Temperatura: 35.0 °C 21.2 °C 28.6 °C
Punt de rosada: 17.2 °C 12.9 °C 15.3 °C
Humitat: 71 % 31 % 46 %
Wind Speed: 24.1 km/h 0.0 km/h 9 km/h
RĂ fegues de vent: 24.1 km/h - -
Vent:- - SW
Pression baro: 1018.8 hPa 1014.8 hPa -
Precipitacions: 0.0 mm    
Historical Graphs
 
 
Dades de taula per Juny 23, 2017
Temps Temperatura Punt de rosada Pression baro Vent Wind Speed RĂ fegues de vent Humitat Rainfall Rate (Hourly)
00:01 24.2 °C 13.1 °C 1017.8 hPa SW 6.4 km/h 6.4 km/h 50 % 0.0 mm
00:05 22.4 °C 14.8 °C 1017.8 hPa West 3.2 km/h 6.4 km/h 62 % 0.0 mm
00:06 24.1 °C 13.3 °C 1017.8 hPa SSW 5.6 km/h 5.6 km/h 51 % 0.0 mm
00:15 22.3 °C 14.7 °C 1017.8 hPa WSW 3.2 km/h 4.8 km/h 62 % 0.0 mm
00:25 22.2 °C 14.6 °C 1017.8 hPa West 3.2 km/h 4.8 km/h 62 % 0.0 mm
00:35 22.1 °C 14.5 °C 1017.8 hPa West 1.6 km/h 3.2 km/h 62 % 0.0 mm
00:45 22.0 °C 14.6 °C 1017.8 hPa Calm   1.6 km/h 63 % 0.0 mm
00:55 21.7 °C 14.3 °C 1017.8 hPa Calm     63 % 0.0 mm
01:05 21.8 °C 14.4 °C 1017.8 hPa WNW 1.6 km/h 3.2 km/h 63 % 0.0 mm
01:15 21.7 °C 14.1 °C 1017.8 hPa WNW 1.6 km/h 3.2 km/h 62 % 0.0 mm
01:25 21.8 °C 14.2 °C 1017.8 hPa West 3.2 km/h 3.2 km/h 62 % 0.0 mm
01:35 22.0 °C 14.4 °C 1017.8 hPa West 1.6 km/h 4.8 km/h 62 % 0.0 mm
01:45 22.0 °C 14.6 °C 1017.8 hPa West 1.6 km/h 3.2 km/h 63 % 0.0 mm
01:55 21.9 °C 14.8 °C 1016.8 hPa WNW 1.6 km/h 3.2 km/h 64 % 0.0 mm
02:05 22.0 °C 13.9 °C 1017.8 hPa NNW 1.6 km/h 4.8 km/h 60 % 0.0 mm
02:15 22.2 °C 13.8 °C 1017.8 hPa Calm   1.6 km/h 59 % 0.0 mm
02:25 22.5 °C 14.1 °C 1017.8 hPa Calm   3.2 km/h 59 % 0.0 mm
02:35 23.3 °C 14.6 °C 1016.8 hPa NNW 1.6 km/h 3.2 km/h 58 % 0.0 mm
02:45 23.7 °C 14.9 °C 1016.8 hPa Calm   3.2 km/h 58 % 0.0 mm
02:55 23.6 °C 14.8 °C 1017.8 hPa WNW 1.6 km/h 3.2 km/h 58 % 0.0 mm
03:05 23.8 °C 15.1 °C 1017.8 hPa West 1.6 km/h 4.8 km/h 58 % 0.0 mm
03:15 24.0 °C 15.5 °C 1017.8 hPa WSW 3.2 km/h 3.2 km/h 59 % 0.0 mm
03:25 24.1 °C 15.6 °C 1017.8 hPa West 3.2 km/h 6.4 km/h 59 % 0.0 mm
03:35 24.5 °C 16.2 °C 1017.8 hPa WSW 1.6 km/h 4.8 km/h 60 % 0.0 mm
03:45 24.7 °C 16.4 °C 1017.8 hPa SW 3.2 km/h 4.8 km/h 60 % 0.0 mm
03:55 25.0 °C 16.4 °C 1018.8 hPa WSW 3.2 km/h 4.8 km/h 59 % 0.0 mm
04:05 25.4 °C 16.6 °C 1017.8 hPa WSW 4.8 km/h 4.8 km/h 58 % 0.0 mm
04:15 25.6 °C 16.4 °C 1017.8 hPa WSW 4.8 km/h 6.4 km/h 57 % 0.0 mm
04:25 26.0 °C 16.3 °C 1018.8 hPa WSW 4.8 km/h 9.7 km/h 55 % 0.0 mm
04:35 26.6 °C 16.8 °C 1018.8 hPa WSW 3.2 km/h 6.4 km/h 55 % 0.0 mm
04:45 27.0 °C 16.6 °C 1018.8 hPa WSW 4.8 km/h 4.8 km/h 53 % 0.0 mm
04:55 27.4 °C 16.7 °C 1018.8 hPa WSW 3.2 km/h 6.4 km/h 52 % 0.0 mm
05:05 27.9 °C 16.8 °C 1018.8 hPa WSW 3.2 km/h 6.4 km/h 51 % 0.0 mm
05:15 28.1 °C 16.7 °C 1018.8 hPa WSW 3.2 km/h 6.4 km/h 50 % 0.0 mm
05:25 28.7 °C 16.9 °C 1018.8 hPa WSW 3.2 km/h 6.4 km/h 49 % 0.0 mm
10:36 29.8 °C 16.6 °C 1018.8 hPa SW 7.9 km/h 7.9 km/h 45 % 0.0 mm
10:41 30.1 °C 16.5 °C 1018.8 hPa SSW 5.6 km/h 5.6 km/h 44 % 0.0 mm
10:46 30.3 °C 16.3 °C 1018.8 hPa South 9.3 km/h 9.3 km/h 43 % 0.0 mm
10:51 30.4 °C 16.1 °C 1018.8 hPa West 7.4 km/h 7.4 km/h 42 % 0.0 mm
10:56 30.8 °C 16.4 °C 1018.8 hPa SW 7.4 km/h 7.4 km/h 42 % 0.0 mm
11:01 31.0 °C 16.2 °C 1018.8 hPa SW 7.4 km/h 7.4 km/h 41 % 0.0 mm
11:06 31.5 °C 16.7 °C 1018.8 hPa South 7.4 km/h 7.4 km/h 41 % 0.0 mm
11:11 31.5 °C 16.3 °C 1018.8 hPa SE 9.3 km/h 9.3 km/h 40 % 0.0 mm
11:16 31.6 °C 16.7 °C 1017.8 hPa WSW 9.3 km/h 9.3 km/h 41 % 0.0 mm
11:21 31.7 °C 16.4 °C 1017.8 hPa SSW 11.1 km/h 11.1 km/h 40 % 0.0 mm
11:26 32.2 °C 16.9 °C 1017.8 hPa WSW 5.8 km/h 5.8 km/h 40 % 0.0 mm
11:31 32.0 °C 16.3 °C 1018.8 hPa SW 13.0 km/h 13.0 km/h 39 % 0.0 mm
11:36 32.2 °C 16.1 °C 1018.8 hPa WSW 5.6 km/h 5.6 km/h 38 % 0.0 mm
11:41 32.3 °C 15.8 °C 1018.8 hPa SW 10.0 km/h 10.0 km/h 37 % 0.0 mm
11:46 32.1 °C 15.2 °C 1017.8 hPa West 13.0 km/h 13.0 km/h 36 % 0.0 mm
11:51 32.1 °C 15.6 °C 1017.8 hPa SW 12.2 km/h 12.2 km/h 37 % 0.0 mm
11:56 32.3 °C 15.8 °C 1017.8 hPa South 13.0 km/h 13.0 km/h 37 % 0.0 mm
12:01 33.0 °C 15.9 °C 1017.8 hPa WSW 7.4 km/h 7.4 km/h 36 % 0.0 mm
12:06 33.3 °C 16.2 °C 1017.8 hPa East 9.3 km/h 9.3 km/h 36 % 0.0 mm
12:11 33.4 °C 16.3 °C 1017.8 hPa SW 9.3 km/h 9.3 km/h 36 % 0.0 mm
12:16 33.7 °C 16.6 °C 1016.8 hPa WSW 7.4 km/h 7.4 km/h 36 % 0.0 mm
12:21 33.4 °C 15.8 °C 1016.8 hPa SW 9.3 km/h 9.3 km/h 35 % 0.0 mm
12:26 33.3 °C 15.3 °C 1016.8 hPa SW 11.1 km/h 11.1 km/h 34 % 0.0 mm
12:31 33.5 °C 15.9 °C 1017.8 hPa WSW 11.1 km/h 11.1 km/h 35 % 0.0 mm
12:36 34.3 °C 16.7 °C 1017.8 hPa SW 5.6 km/h 5.6 km/h 35 % 0.0 mm
12:41 34.3 °C 16.2 °C 1017.8 hPa SW 11.1 km/h 11.1 km/h 34 % 0.0 mm
12:46 33.9 °C 15.8 °C 1017.8 hPa SSW 16.7 km/h 16.7 km/h 34 % 0.0 mm
12:51 33.7 °C 15.7 °C 1017.8 hPa WSW 18.5 km/h 18.5 km/h 34 % 0.0 mm
12:56 33.9 °C 15.8 °C 1017.8 hPa South 14.8 km/h 14.8 km/h 34 % 0.0 mm
13:01 34.3 °C 16.2 °C 1017.8 hPa WSW 9.3 km/h 9.3 km/h 34 % 0.0 mm
13:06 34.0 °C 15.9 °C 1017.8 hPa SSE 20.4 km/h 20.4 km/h 34 % 0.0 mm
13:11 34.5 °C 16.3 °C 1017.8 hPa SW 9.3 km/h 9.3 km/h 34 % 0.0 mm
13:16 34.5 °C 15.9 °C 1017.8 hPa WSW 9.3 km/h 9.3 km/h 33 % 0.0 mm
13:21 34.3 °C 15.2 °C 1017.8 hPa SSW 14.8 km/h 14.8 km/h 32 % 0.0 mm
13:26 34.3 °C 14.7 °C 1017.8 hPa SW 9.3 km/h 9.3 km/h 31 % 0.0 mm
13:31 34.6 °C 15.5 °C 1017.8 hPa SW 11.1 km/h 11.1 km/h 32 % 0.0 mm
13:36 34.7 °C 15.1 °C 1017.8 hPa SW 13.0 km/h 13.0 km/h 31 % 0.0 mm
13:41 34.7 °C 15.1 °C 1017.8 hPa SW 9.3 km/h 9.3 km/h 31 % 0.0 mm
13:46 34.7 °C 15.1 °C 1017.8 hPa SSW 9.3 km/h 9.3 km/h 31 % 0.0 mm
13:51 34.7 °C 15.1 °C 1017.8 hPa WSW 10.0 km/h 10.0 km/h 31 % 0.0 mm
13:56 34.4 °C 14.8 °C 1017.8 hPa SSW 14.8 km/h 14.8 km/h 31 % 0.0 mm
14:01 34.5 °C 14.9 °C 1017.8 hPa WSW 15.6 km/h 15.6 km/h 31 % 0.0 mm
14:06 34.8 °C 15.2 °C 1017.8 hPa West 11.1 km/h 11.1 km/h 31 % 0.0 mm
14:11 34.7 °C 15.1 °C 1017.8 hPa SSW 12.6 km/h 12.6 km/h 31 % 0.0 mm
14:16 34.9 °C 15.3 °C 1017.8 hPa SW 9.3 km/h 9.3 km/h 31 % 0.0 mm
14:21 34.5 °C 14.9 °C 1017.8 hPa SSW 13.0 km/h 13.0 km/h 31 % 0.0 mm
14:26 34.7 °C 15.6 °C 1017.8 hPa West 11.1 km/h 11.1 km/h 32 % 0.0 mm
14:31 34.7 °C 15.6 °C 1016.8 hPa SSW 9.3 km/h 9.3 km/h 32 % 0.0 mm
14:36 35.0 °C 15.3 °C 1016.8 hPa West 14.0 km/h 14.0 km/h 31 % 0.0 mm
14:39 34.5 °C 15.4 °C 1016.8 hPa SW 11.1 km/h 11.1 km/h 32 % 0.0 mm
14:44 34.8 °C 16.2 °C 1016.8 hPa SW 11.1 km/h 11.1 km/h 33 % 0.0 mm
14:49 34.7 °C 16.1 °C 1016.8 hPa West 13.0 km/h 13.0 km/h 33 % 0.0 mm
14:54 34.9 °C 16.2 °C 1016.8 hPa West 14.8 km/h 14.8 km/h 33 % 0.0 mm
14:59 34.6 °C 16.4 °C 1015.8 hPa SW 18.5 km/h 18.5 km/h 34 % 0.0 mm
15:04 34.2 °C 16.6 °C 1015.8 hPa WSW 20.4 km/h 20.4 km/h 35 % 0.0 mm
15:09 34.1 °C 16.4 °C 1015.8 hPa SW 16.1 km/h 16.1 km/h 35 % 0.0 mm
15:14 34.0 °C 16.8 °C 1015.8 hPa SW 16.7 km/h 16.7 km/h 36 % 0.0 mm
15:19 33.8 °C 16.7 °C 1015.8 hPa WSW 16.7 km/h 16.7 km/h 36 % 0.0 mm
15:24 33.5 °C 16.4 °C 1015.8 hPa SSW 18.5 km/h 18.5 km/h 36 % 0.0 mm
15:29 33.9 °C 16.7 °C 1015.8 hPa South 12.2 km/h 12.2 km/h 36 % 0.0 mm
15:34 33.8 °C 16.7 °C 1015.8 hPa SSW 13.0 km/h 13.0 km/h 36 % 0.0 mm
15:39 33.8 °C 16.7 °C 1015.8 hPa West 18.5 km/h 18.5 km/h 36 % 0.0 mm
15:44 33.5 °C 15.9 °C 1015.8 hPa West 16.7 km/h 16.7 km/h 35 % 0.0 mm
15:49 33.7 °C 16.1 °C 1015.8 hPa West 14.8 km/h 14.8 km/h 35 % 0.0 mm
15:54 33.5 °C 15.9 °C 1015.8 hPa SW 20.4 km/h 20.4 km/h 35 % 0.0 mm
15:59 33.8 °C 16.7 °C 1014.8 hPa SW 12.6 km/h 12.6 km/h 36 % 0.0 mm
16:04 33.5 °C 15.9 °C 1014.8 hPa SW 20.9 km/h 20.9 km/h 35 % 0.0 mm
16:09 33.0 °C 15.9 °C 1014.8 hPa SSW 20.4 km/h 20.4 km/h 36 % 0.0 mm
16:14 33.2 °C 16.1 °C 1015.8 hPa SW 20.4 km/h 20.4 km/h 36 % 0.0 mm
16:19 33.3 °C 16.2 °C 1015.8 hPa SW 16.1 km/h 16.1 km/h 36 % 0.0 mm
16:24 32.8 °C 16.2 °C 1015.8 hPa WSW 17.2 km/h 17.2 km/h 37 % 0.0 mm
16:29 33.3 °C 16.6 °C 1015.8 hPa SW 17.5 km/h 17.5 km/h 37 % 0.0 mm
16:34 33.1 °C 16.4 °C 1015.8 hPa South 16.7 km/h 16.7 km/h 37 % 0.0 mm
16:39 32.8 °C 16.6 °C 1015.8 hPa West 13.0 km/h 13.0 km/h 38 % 0.0 mm
16:44 32.7 °C 16.9 °C 1015.8 hPa WSW 18.5 km/h 18.5 km/h 39 % 0.0 mm
16:49 32.6 °C 16.8 °C 1015.8 hPa WSW 13.0 km/h 13.0 km/h 39 % 0.0 mm
16:54 32.6 °C 16.8 °C 1015.8 hPa SSW 20.4 km/h 20.4 km/h 39 % 0.0 mm
16:59 32.6 °C 17.2 °C 1015.8 hPa SW 14.8 km/h 14.8 km/h 40 % 0.0 mm
17:09 32.3 °C 17.0 °C 1015.8 hPa WSW 14.8 km/h 14.8 km/h 40 % 0.0 mm
17:14 32.3 °C 16.6 °C 1014.8 hPa SW 22.2 km/h 22.2 km/h 39 % 0.0 mm
17:19 32.4 °C 16.7 °C 1014.8 hPa SW 14.8 km/h 14.8 km/h 39 % 0.0 mm
17:24 32.4 °C 16.7 °C 1014.8 hPa SSW 16.7 km/h 16.7 km/h 39 % 0.0 mm
17:29 32.3 °C 16.6 °C 1015.8 hPa SSW 16.9 km/h 16.9 km/h 39 % 0.0 mm
17:34 32.1 °C 16.4 °C 1015.8 hPa SW 16.7 km/h 16.7 km/h 39 % 0.0 mm
17:39 32.2 °C 16.5 °C 1015.8 hPa West 13.0 km/h 13.0 km/h 39 % 0.0 mm
17:44 31.9 °C 16.2 °C 1015.8 hPa WSW 18.5 km/h 18.5 km/h 39 % 0.0 mm
17:49 31.7 °C 15.6 °C 1015.8 hPa WSW 13.0 km/h 13.0 km/h 38 % 0.0 mm
17:54 31.3 °C 15.7 °C 1015.8 hPa SW 24.1 km/h 24.1 km/h 39 % 0.0 mm
17:59 31.4 °C 15.8 °C 1015.8 hPa South 14.8 km/h 14.8 km/h 39 % 0.0 mm
18:04 31.4 °C 15.8 °C 1015.8 hPa SW 19.8 km/h 19.8 km/h 39 % 0.0 mm
18:09 31.3 °C 15.7 °C 1015.8 hPa WSW 19.8 km/h 19.8 km/h 39 % 0.0 mm
18:14 30.9 °C 15.7 °C 1015.8 hPa SW 13.0 km/h 13.0 km/h 40 % 0.0 mm
18:19 31.0 °C 15.8 °C 1015.8 hPa SW 16.7 km/h 16.7 km/h 40 % 0.0 mm
18:24 30.9 °C 16.1 °C 1015.8 hPa SSW 9.3 km/h 9.3 km/h 41 % 0.0 mm
18:29 31.2 °C 16.0 °C 1015.8 hPa SSW 15.8 km/h 15.8 km/h 40 % 0.0 mm
18:34 31.1 °C 15.9 °C 1015.8 hPa SW 18.5 km/h 18.5 km/h 40 % 0.0 mm
18:36 31.0 °C 15.8 °C 1015.8 hPa WSW 14.8 km/h 14.8 km/h 40 % 0.0 mm
18:41 31.0 °C 15.8 °C 1015.8 hPa SSW 19.5 km/h 19.5 km/h 40 % 0.0 mm
18:46 30.7 °C 15.6 °C 1015.8 hPa South 20.1 km/h 20.1 km/h 40 % 0.0 mm
18:51 30.6 °C 15.4 °C 1015.8 hPa SSW 14.8 km/h 14.8 km/h 40 % 0.0 mm
18:56 30.7 °C 15.6 °C 1015.8 hPa WSW 14.8 km/h 14.8 km/h 40 % 0.0 mm
19:01 30.5 °C 15.4 °C 1015.8 hPa SW 16.7 km/h 16.7 km/h 40 % 0.0 mm
19:06 30.5 °C 15.8 °C 1015.8 hPa WSW 10.0 km/h 10.0 km/h 41 % 0.0 mm
19:11 30.4 °C 15.7 °C 1015.8 hPa SW 9.3 km/h 9.3 km/h 41 % 0.0 mm
19:16 30.3 °C 15.6 °C 1015.8 hPa SW 12.6 km/h 12.6 km/h 41 % 0.0 mm
19:21 30.1 °C 15.0 °C 1015.8 hPa SW 16.7 km/h 16.7 km/h 40 % 0.0 mm
19:25 23.8 °C 14.8 °C 1017.8 hPa WSW 3.2 km/h 3.2 km/h 57 % 0.0 mm
19:26 29.9 °C 15.2 °C 1015.8 hPa West 16.7 km/h 16.7 km/h 41 % 0.0 mm
19:31 29.7 °C 15.1 °C 1015.8 hPa WSW 20.4 km/h 20.4 km/h 41 % 0.0 mm
19:35 23.6 °C 14.8 °C 1017.8 hPa SW 3.2 km/h 4.8 km/h 58 % 0.0 mm
19:36 29.6 °C 14.9 °C 1015.8 hPa SSW 13.0 km/h 13.0 km/h 41 % 0.0 mm
19:41 29.4 °C 14.8 °C 1015.8 hPa SW 16.7 km/h 16.7 km/h 41 % 0.0 mm
19:45 23.4 °C 14.9 °C 1017.8 hPa WSW 3.2 km/h 3.2 km/h 59 % 0.0 mm
19:46 29.3 °C 14.7 °C 1015.8 hPa SSW 13.0 km/h 13.0 km/h 41 % 0.0 mm
19:51 29.2 °C 14.9 °C 1015.8 hPa South 13.0 km/h 13.0 km/h 42 % 0.0 mm
19:55 23.3 °C 15.1 °C 1017.8 hPa SW 3.2 km/h 3.2 km/h 60 % 0.0 mm
19:56 29.0 °C 14.8 °C 1015.8 hPa SW 11.1 km/h 11.1 km/h 42 % 0.0 mm
20:01 29.0 °C 15.2 °C 1014.8 hPa SW 9.5 km/h 9.5 km/h 43 % 0.0 mm
20:05 23.3 °C 15.1 °C 1017.8 hPa WSW 3.2 km/h 4.8 km/h 60 % 0.0 mm
20:06 28.8 °C 15.3 °C 1014.8 hPa SW 5.6 km/h 5.6 km/h 44 % 0.0 mm
20:11 28.8 °C 15.0 °C 1014.8 hPa West 11.1 km/h 11.1 km/h 43 % 0.0 mm
20:15 23.2 °C 15.3 °C 1017.8 hPa West 1.6 km/h 3.2 km/h 61 % 0.0 mm
20:16 28.6 °C 14.8 °C 1014.8 hPa WSW 14.8 km/h 14.8 km/h 43 % 0.0 mm
20:21 28.5 °C 14.7 °C 1014.8 hPa SSW 9.3 km/h 9.3 km/h 43 % 0.0 mm
20:25 23.1 °C 15.2 °C 1017.8 hPa WSW 3.2 km/h 3.2 km/h 61 % 0.0 mm
20:26 28.3 °C 14.2 °C 1014.8 hPa SSW 9.3 km/h 9.3 km/h 42 % 0.0 mm
20:31 28.2 °C 14.1 °C 1014.8 hPa SW 5.6 km/h 5.6 km/h 42 % 0.0 mm
20:35 23.0 °C 15.3 °C 1016.8 hPa West 1.6 km/h 3.2 km/h 62 % 0.0 mm
20:36 28.1 °C 14.0 °C 1014.8 hPa South 7.4 km/h 7.4 km/h 42 % 0.0 mm
20:41 28.0 °C 13.9 °C 1014.8 hPa WNW 7.4 km/h 7.4 km/h 42 % 0.0 mm
20:45 23.0 °C 15.3 °C 1016.8 hPa West 1.6 km/h 3.2 km/h 62 % 0.0 mm
20:46 27.8 °C 13.3 °C 1015.8 hPa South 9.3 km/h 9.3 km/h 41 % 0.0 mm
20:51 27.7 °C 13.3 °C 1015.8 hPa SW 5.6 km/h 5.6 km/h 41 % 0.0 mm
20:55 23.0 °C 15.3 °C 1017.8 hPa West 1.6 km/h 3.2 km/h 62 % 0.0 mm
20:56 27.6 °C 13.2 °C 1015.8 hPa SW 5.6 km/h 5.6 km/h 41 % 0.0 mm
21:01 27.5 °C 13.1 °C 1015.8 hPa SW 7.4 km/h 7.4 km/h 41 % 0.0 mm
21:05 23.0 °C 15.3 °C 1017.8 hPa West 3.2 km/h 3.2 km/h 62 % 0.0 mm
21:06 27.3 °C 12.9 °C 1015.8 hPa WSW 11.1 km/h 11.1 km/h 41 % 0.0 mm
21:11 27.1 °C 13.1 °C 1015.8 hPa WSW 20.4 km/h 20.4 km/h 42 % 0.0 mm
21:15 22.9 °C 15.2 °C 1017.8 hPa West 3.2 km/h 3.2 km/h 62 % 0.0 mm
21:16 27.0 °C 13.0 °C 1015.8 hPa SW 9.3 km/h 9.3 km/h 42 % 0.0 mm
21:21 26.9 °C 13.3 °C 1015.8 hPa SW 9.3 km/h 9.3 km/h 43 % 0.0 mm
21:25 22.9 °C 15.5 °C 1017.8 hPa West 1.6 km/h 6.4 km/h 63 % 0.0 mm
21:26 26.7 °C 13.4 °C 1015.8 hPa SW 9.3 km/h 9.3 km/h 44 % 0.0 mm
21:31 26.5 °C 13.3 °C 1015.8 hPa SW 6.1 km/h 6.1 km/h 44 % 0.0 mm
21:35 22.8 °C 15.4 °C 1017.8 hPa West 1.6 km/h 4.8 km/h 63 % 0.0 mm
21:36 26.4 °C 13.5 °C 1015.8 hPa SW 9.3 km/h 9.3 km/h 45 % 0.0 mm
21:41 26.3 °C 13.4 °C 1015.8 hPa WSW 7.9 km/h 7.9 km/h 45 % 0.0 mm
21:45 22.8 °C 15.6 °C 1017.8 hPa West 3.2 km/h 4.8 km/h 64 % 0.0 mm
21:46 26.1 °C 13.2 °C 1015.8 hPa SW 7.4 km/h 7.4 km/h 45 % 0.0 mm
21:51 26.0 °C 13.5 °C 1015.8 hPa SW 7.4 km/h 7.4 km/h 46 % 0.0 mm
21:55 22.8 °C 15.6 °C 1017.8 hPa WSW 3.2 km/h 4.8 km/h 64 % 0.0 mm
21:56 25.9 °C 13.4 °C 1015.8 hPa East 9.3 km/h 9.3 km/h 46 % 0.0 mm
22:01 25.8 °C 13.6 °C 1015.8 hPa West 5.8 km/h 5.8 km/h 47 % 0.0 mm
22:05 22.7 °C 15.8 °C 1017.8 hPa WSW 1.6 km/h 3.2 km/h 65 % 0.0 mm
22:06 25.7 °C 13.6 °C 1015.8 hPa WSW 3.7 km/h 3.7 km/h 47 % 0.0 mm
22:11 25.6 °C 13.8 °C 1015.8 hPa SSW 3.7 km/h 3.7 km/h 48 % 0.0 mm
22:15 22.6 °C 15.7 °C 1017.8 hPa Calm   3.2 km/h 65 % 0.0 mm
22:16 25.4 °C 13.6 °C 1015.8 hPa WSW 5.6 km/h 5.6 km/h 48 % 0.0 mm
22:21 25.3 °C 13.8 °C 1015.8 hPa SW 7.4 km/h 7.4 km/h 49 % 0.0 mm
22:25 22.4 °C 15.7 °C 1017.8 hPa Calm   1.6 km/h 66 % 0.0 mm
22:26 25.3 °C 13.8 °C 1015.8 hPa WSW 3.7 km/h 3.7 km/h 49 % 0.0 mm
22:31 25.1 °C 13.9 °C 1016.8 hPa WSW 9.3 km/h 9.3 km/h 50 % 0.0 mm
22:35 22.1 °C 15.4 °C 1017.8 hPa Calm     66 % 0.0 mm
22:36 25.1 °C 13.9 °C 1016.8 hPa SW 5.6 km/h 5.6 km/h 50 % 0.0 mm
22:41 25.0 °C 14.2 °C 1016.8 hPa SW 7.4 km/h 7.4 km/h 51 % 0.0 mm
22:45 21.9 °C 15.7 °C 1017.8 hPa Calm     68 % 0.0 mm
22:46 24.9 °C 14.4 °C 1016.8 hPa SW 3.7 km/h 3.7 km/h 52 % 0.0 mm
22:51 24.9 °C 14.4 °C 1016.8 hPa SW 3.7 km/h 3.7 km/h 52 % 0.0 mm
22:55 21.7 °C 15.8 °C 1017.8 hPa Calm     69 % 0.0 mm
22:56 24.8 °C 14.3 °C 1016.8 hPa SW 3.9 km/h 3.9 km/h 52 % 0.0 mm
23:01 24.7 °C 14.5 °C 1017.8 hPa SW 5.6 km/h 5.6 km/h 53 % 0.0 mm
23:02 24.7 °C 14.5 °C 1017.8 hPa SW 5.6 km/h 5.6 km/h 53 % 0.0 mm
23:05 21.6 °C 15.7 °C 1017.8 hPa Calm     69 % 0.0 mm
23:07 24.6 °C 14.4 °C 1017.8 hPa West 3.7 km/h 3.7 km/h 53 % 0.0 mm
23:12 24.6 °C 14.4 °C 1017.8 hPa WSW 3.7 km/h 3.7 km/h 53 % 0.0 mm
23:15 21.5 °C 15.6 °C 1017.8 hPa Calm     69 % 0.0 mm
23:17 24.5 °C 14.3 °C 1017.8 hPa West 5.6 km/h 5.6 km/h 53 % 0.0 mm
23:22 24.4 °C 14.2 °C 1017.8 hPa WSW 5.6 km/h 5.6 km/h 53 % 0.0 mm
23:25 21.4 °C 15.7 °C 1016.8 hPa SW 1.6 km/h 1.6 km/h 70 % 0.0 mm
23:27 24.3 °C 14.1 °C 1017.8 hPa West 3.7 km/h 3.9 km/h 53 % 0.0 mm
23:32 24.3 °C 14.4 °C 1017.8 hPa WSW 3.7 km/h 3.7 km/h 54 % 0.0 mm
23:35 21.3 °C 15.8 °C 1016.8 hPa Calm   3.2 km/h 71 % 0.0 mm
23:37 24.3 °C 14.4 °C 1017.8 hPa WSW 5.6 km/h 5.6 km/h 54 % 0.0 mm
23:42 24.2 °C 14.3 °C 1017.8 hPa WNW 5.6 km/h 5.6 km/h 54 % 0.0 mm
23:45 21.2 °C 15.7 °C 1016.8 hPa Calm     71 % 0.0 mm
23:47 24.2 °C 14.3 °C 1017.8 hPa SW 3.7 km/h 3.7 km/h 54 % 0.0 mm
23:52 24.1 °C 14.2 °C 1017.8 hPa West 3.7 km/h 3.7 km/h 54 % 0.0 mm
23:55 21.2 °C 15.7 °C 1016.8 hPa WSW 1.6 km/h 1.6 km/h 71 % 0.0 mm
23:57 24.0 °C 14.1 °C 1017.8 hPa West 3.7 km/h 3.7 km/h 54 % 0.0 mm
Meteo Sesrovires
Elogis d' Weather Underground - 3.75 mb

Guio original per  Jim McMurry - jmcmurry@mwt.net Adaptat per a la plantilla per  Wim van der Kuil - Leuven-Template.eu

Trobareu la nostra informacio del temps tambe a:

Weather Underground

AWEKAS